sensor_id;sensor_type;location;lat;lon;timestamp;pressure;altitude;pressure_sealevel;temperature;humidity
71145;BME280;58812;47.698;17.726;2023-02-07T00:04:47;102562.75;;;-7.89;91.20
71145;BME280;58812;47.698;17.726;2023-02-07T00:07:12;102566.28;;;-7.87;91.12
71145;BME280;58812;47.698;17.726;2023-02-07T00:09:38;102571.09;;;-8.08;91.30
71145;BME280;58812;47.698;17.726;2023-02-07T00:12:04;102579.69;;;-8.12;91.64
71145;BME280;58812;47.698;17.726;2023-02-07T00:14:29;102580.69;;;-8.05;91.38
71145;BME280;58812;47.698;17.726;2023-02-07T00:16:55;102575.37;;;-8.12;91.18
71145;BME280;58812;47.698;17.726;2023-02-07T00:19:20;102588.41;;;-8.09;91.80
71145;BME280;58812;47.698;17.726;2023-02-07T00:25:08;102577.88;;;-8.16;92.57
71145;BME280;58812;47.698;17.726;2023-02-07T00:27:34;102592.69;;;-8.12;92.47
71145;BME280;58812;47.698;17.726;2023-02-07T00:29:59;102590.91;;;-8.15;92.32
71145;BME280;58812;47.698;17.726;2023-02-07T00:32:24;102586.37;;;-8.25;92.33
71145;BME280;58812;47.698;17.726;2023-02-07T00:34:50;102595.94;;;-8.24;92.40
71145;BME280;58812;47.698;17.726;2023-02-07T00:37:15;102596.00;;;-8.19;92.55
71145;BME280;58812;47.698;17.726;2023-02-07T00:39:41;102594.31;;;-8.17;92.66
71145;BME280;58812;47.698;17.726;2023-02-07T00:42:07;102589.69;;;-8.34;92.59
71145;BME280;58812;47.698;17.726;2023-02-07T00:44:32;102590.25;;;-8.50;92.55
71145;BME280;58812;47.698;17.726;2023-02-07T00:46:58;102590.25;;;-8.50;92.50
71145;BME280;58812;47.698;17.726;2023-02-07T00:49:24;102596.31;;;-8.49;92.71
71145;BME280;58812;47.698;17.726;2023-02-07T00:51:50;102598.06;;;-8.48;92.90
71145;BME280;58812;47.698;17.726;2023-02-07T00:54:15;102607.66;;;-8.46;93.10
71145;BME280;58812;47.698;17.726;2023-02-07T00:56:41;102597.16;;;-8.50;93.49
71145;BME280;58812;47.698;17.726;2023-02-07T00:59:06;102591.97;;;-8.50;93.73
71145;BME280;58812;47.698;17.726;2023-02-07T01:01:32;102595.28;;;-8.57;93.51
71145;BME280;58812;47.698;17.726;2023-02-07T01:03:57;102587.66;;;-8.50;93.33
71145;BME280;58812;47.698;17.726;2023-02-07T01:06:23;102578.25;;;-8.43;93.30
71145;BME280;58812;47.698;17.726;2023-02-07T01:08:49;102567.91;;;-8.42;93.34
71145;BME280;58812;47.698;17.726;2023-02-07T01:11:16;102569.66;;;-8.41;93.02
71145;BME280;58812;47.698;17.726;2023-02-07T01:13:43;102572.44;;;-8.30;93.41
71145;BME280;58812;47.698;17.726;2023-02-07T01:16:18;102566.25;;;-8.37;92.95
71145;BME280;58812;47.698;17.726;2023-02-07T01:18:44;102563.53;;;-8.43;92.95
71145;BME280;58812;47.698;17.726;2023-02-07T01:21:17;102575.84;;;-8.32;92.56
71145;BME280;58812;47.698;17.726;2023-02-07T01:23:43;102576.72;;;-8.32;92.21
71145;BME280;58812;47.698;17.726;2023-02-07T01:26:09;102584.44;;;-8.37;92.03
71145;BME280;58812;47.698;17.726;2023-02-07T01:28:34;102583.53;;;-8.40;91.95
71145;BME280;58812;47.698;17.726;2023-02-07T01:31:05;102574.69;;;-8.48;91.95
71145;BME280;58812;47.698;17.726;2023-02-07T01:33:31;102571.16;;;-8.52;92.08
71145;BME280;58812;47.698;17.726;2023-02-07T01:35:57;102570.19;;;-8.57;92.16
71145;BME280;58812;47.698;17.726;2023-02-07T01:38:22;102567.53;;;-8.60;92.53
71145;BME280;58812;47.698;17.726;2023-02-07T01:40:48;102564.88;;;-8.63;92.41
71145;BME280;58812;47.698;17.726;2023-02-07T01:43:16;102553.53;;;-8.68;92.38
71145;BME280;58812;47.698;17.726;2023-02-07T01:45:43;102539.31;;;-8.85;92.61
71145;BME280;58812;47.698;17.726;2023-02-07T01:48:19;102536.84;;;-8.79;93.03
71145;BME280;58812;47.698;17.726;2023-02-07T01:50:48;102545.63;;;-8.74;93.60
71145;BME280;58812;47.698;17.726;2023-02-07T01:53:18;102549.09;;;-8.72;94.15
71145;BME280;58812;47.698;17.726;2023-02-07T01:55:46;102546.56;;;-8.71;94.39
71145;BME280;58812;47.698;17.726;2023-02-07T01:58:13;102544.03;;;-8.66;94.29
71145;BME280;58812;47.698;17.726;2023-02-07T02:00:39;102540.50;;;-8.71;94.27
71145;BME280;58812;47.698;17.726;2023-02-07T02:03:05;102540.56;;;-8.68;93.99
71145;BME280;58812;47.698;17.726;2023-02-07T02:05:31;102537.19;;;-8.64;93.98
71145;BME280;58812;47.698;17.726;2023-02-07T02:07:58;102537.09;;;-8.67;93.93
71145;BME280;58812;47.698;17.726;2023-02-07T02:10:43;102534.50;;;-8.67;93.77
71145;BME280;58812;47.698;17.726;2023-02-07T02:19:16;102528.44;;;-8.68;92.21
71145;BME280;58812;47.698;17.726;2023-02-07T02:28:07;102518.66;;;-8.82;92.86
71145;BME280;58812;47.698;17.726;2023-02-07T02:33:54;102519.34;;;-8.90;93.98
71145;BME280;58812;47.698;17.726;2023-02-07T02:36:33;102518.59;;;-8.84;94.01
71145;BME280;58812;47.698;17.726;2023-02-07T02:39:20;102523.78;;;-8.84;93.53
71145;BME280;58812;47.698;17.726;2023-02-07T02:42:00;102520.00;;;-9.00;93.66
71145;BME280;58812;47.698;17.726;2023-02-07T02:44:35;102529.53;;;-8.99;94.11
71145;BME280;58812;47.698;17.726;2023-02-07T02:47:03;102524.22;;;-9.05;94.42
71145;BME280;58812;47.698;17.726;2023-02-07T02:49:31;102521.87;;;-8.93;94.38
71145;BME280;58812;47.698;17.726;2023-02-07T02:51:58;102522.84;;;-8.88;93.97
71145;BME280;58812;47.698;17.726;2023-02-07T02:54:30;102509.91;;;-8.86;93.74
71145;BME280;58812;47.698;17.726;2023-02-07T03:08:45;102541.03;;;-8.88;94.30
71145;BME280;58812;47.698;17.726;2023-02-07T03:11:15;102545.28;;;-8.90;93.87
71145;BME280;58812;47.698;17.726;2023-02-07T03:14:23;102548.69;;;-8.94;93.35
71145;BME280;58812;47.698;17.726;2023-02-07T03:16:58;102544.53;;;-8.84;93.74
71145;BME280;58812;47.698;17.726;2023-02-07T03:21:57;102549.59;;;-8.90;92.87
71145;BME280;58812;47.698;17.726;2023-02-07T03:24:33;102553.91;;;-8.92;93.18
71145;BME280;58812;47.698;17.726;2023-02-07T03:27:03;102539.59;;;-9.14;94.22
71145;BME280;58812;47.698;17.726;2023-02-07T03:29:30;102549.03;;;-9.18;94.81
71145;BME280;58812;47.698;17.726;2023-02-07T03:31:59;102546.59;;;-9.10;95.38
71145;BME280;58812;47.698;17.726;2023-02-07T03:34:40;102538.94;;;-9.04;95.89
71145;BME280;58812;47.698;17.726;2023-02-07T03:37:16;102527.81;;;-9.00;96.90
71145;BME280;58812;47.698;17.726;2023-02-07T03:39:43;102526.09;;;-8.98;97.22
71145;BME280;58812;47.698;17.726;2023-02-07T03:42:15;102526.97;;;-8.97;96.92
71145;BME280;58812;47.698;17.726;2023-02-07T03:44:45;102527.91;;;-8.95;96.80
71145;BME280;58812;47.698;17.726;2023-02-07T03:47:11;102524.41;;;-8.96;96.67
71145;BME280;58812;47.698;17.726;2023-02-07T03:49:37;102535.63;;;-8.97;96.58
71145;BME280;58812;47.698;17.726;2023-02-07T03:52:02;102533.97;;;-8.95;96.64
71145;BME280;58812;47.698;17.726;2023-02-07T03:54:28;102541.94;;;-8.85;96.60
71145;BME280;58812;47.698;17.726;2023-02-07T03:56:53;102548.72;;;-8.91;96.27
71145;BME280;58812;47.698;17.726;2023-02-07T03:59:18;102546.88;;;-8.98;95.82
71145;BME280;58812;47.698;17.726;2023-02-07T04:01:44;102540.81;;;-8.97;95.68
71145;BME280;58812;47.698;17.726;2023-02-07T04:04:10;102535.59;;;-8.98;95.10
71145;BME280;58812;47.698;17.726;2023-02-07T04:06:36;102525.06;;;-9.06;94.96
71145;BME280;58812;47.698;17.726;2023-02-07T04:09:01;102519.75;;;-9.12;95.00
71145;BME280;58812;47.698;17.726;2023-02-07T04:11:27;102513.63;;;-9.14;95.58
71145;BME280;58812;47.698;17.726;2023-02-07T04:13:52;102508.44;;;-9.14;95.62
71145;BME280;58812;47.698;17.726;2023-02-07T04:16:18;102515.69;;;-9.01;95.57
71145;BME280;58812;47.698;17.726;2023-02-07T04:18:43;102528.53;;;-9.05;95.48
71145;BME280;58812;47.698;17.726;2023-02-07T04:21:09;102529.41;;;-9.05;95.54
71145;BME280;58812;47.698;17.726;2023-02-07T04:23:35;102527.66;;;-9.06;96.22
71145;BME280;58812;47.698;17.726;2023-02-07T04:26:01;102537.03;;;-9.12;96.24
71145;BME280;58812;47.698;17.726;2023-02-07T04:28:27;102540.72;;;-9.01;95.99
71145;BME280;58812;47.698;17.726;2023-02-07T04:30:53;102527.94;;;-8.94;95.54
71145;BME280;58812;47.698;17.726;2023-02-07T04:33:19;102526.09;;;-8.98;95.25
71145;BME280;58812;47.698;17.726;2023-02-07T04:35:52;102533.16;;;-8.91;94.85
71145;BME280;58812;47.698;17.726;2023-02-07T04:38:17;102533.97;;;-8.95;94.77
71145;BME280;58812;47.698;17.726;2023-02-07T04:40:43;102530.31;;;-9.03;95.00
71145;BME280;58812;47.698;17.726;2023-02-07T04:43:08;102537.25;;;-9.02;95.17
71145;BME280;58812;47.698;17.726;2023-02-07T04:45:34;102550.34;;;-8.96;95.59
71145;BME280;58812;47.698;17.726;2023-02-07T04:47:59;102559.91;;;-8.95;96.09
71145;BME280;58812;47.698;17.726;2023-02-07T04:50:24;102553.94;;;-8.91;96.35
71145;BME280;58812;47.698;17.726;2023-02-07T04:52:50;102556.59;;;-8.88;96.38
71145;BME280;58812;47.698;17.726;2023-02-07T04:55:15;102556.66;;;-8.84;96.30
71145;BME280;58812;47.698;17.726;2023-02-07T04:57:41;102565.41;;;-8.79;96.11
71145;BME280;58812;47.698;17.726;2023-02-07T05:00:06;102569.00;;;-8.73;95.90
71145;BME280;58812;47.698;17.726;2023-02-07T05:02:32;102574.19;;;-8.73;95.82
71145;BME280;58812;47.698;17.726;2023-02-07T05:04:57;102571.38;;;-8.83;95.82
71145;BME280;58812;47.698;17.726;2023-02-07T05:07:23;102572.28;;;-8.83;96.22
71145;BME280;58812;47.698;17.726;2023-02-07T05:09:48;102573.19;;;-8.79;96.14
71145;BME280;58812;47.698;17.726;2023-02-07T05:12:14;102583.59;;;-8.79;95.93
71145;BME280;58812;47.698;17.726;2023-02-07T05:14:39;102587.22;;;-8.71;96.44
71145;BME280;58812;47.698;17.726;2023-02-07T05:17:04;102587.22;;;-8.71;96.41
71145;BME280;58812;47.698;17.726;2023-02-07T05:19:30;102589.87;;;-8.68;96.20
71145;BME280;58812;47.698;17.726;2023-02-07T05:21:56;102587.22;;;-8.71;96.00
71145;BME280;58812;47.698;17.726;2023-02-07T05:24:22;102588.00;;;-8.75;96.00
71145;BME280;58812;47.698;17.726;2023-02-07T05:26:47;102582.84;;;-8.74;95.95
71145;BME280;58812;47.698;17.726;2023-02-07T05:29:13;102585.19;;;-8.84;96.33
71145;BME280;58812;47.698;17.726;2023-02-07T05:31:38;102587.78;;;-8.84;96.44
71145;BME280;58812;47.698;17.726;2023-02-07T05:34:22;102585.13;;;-8.89;96.40
71145;BME280;58812;47.698;17.726;2023-02-07T05:36:48;102593.78;;;-8.89;96.48
71145;BME280;58812;47.698;17.726;2023-02-07T05:39:13;102598.91;;;-8.90;96.55
71145;BME280;58812;47.698;17.726;2023-02-07T05:41:39;102595.56;;;-8.84;96.86
71145;BME280;58812;47.698;17.726;2023-02-07T05:44:04;102587.78;;;-8.86;97.23
71145;BME280;58812;47.698;17.726;2023-02-07T05:46:31;102586.91;;;-8.86;97.50
71145;BME280;58812;47.698;17.726;2023-02-07T05:48:56;102591.19;;;-8.89;97.35
71145;BME280;58812;47.698;17.726;2023-02-07T05:51:22;102593.81;;;-8.87;97.35
71145;BME280;58812;47.698;17.726;2023-02-07T05:53:47;102595.41;;;-8.94;97.33
71145;BME280;58812;47.698;17.726;2023-02-07T05:56:12;102607.38;;;-9.00;97.57
71145;BME280;58812;47.698;17.726;2023-02-07T05:58:38;102598.72;;;-9.01;98.23
71145;BME280;58812;47.698;17.726;2023-02-07T06:01:03;102602.09;;;-9.03;98.53
71145;BME280;58812;47.698;17.726;2023-02-07T06:03:29;102604.62;;;-9.06;98.72
71145;BME280;58812;47.698;17.726;2023-02-07T06:05:54;102601.09;;;-9.10;98.68
71145;BME280;58812;47.698;17.726;2023-02-07T06:08:20;102596.66;;;-9.14;98.88
71145;BME280;58812;47.698;17.726;2023-02-07T06:10:47;102601.94;;;-9.11;99.23
71145;BME280;58812;47.698;17.726;2023-02-07T06:13:13;102602.69;;;-9.15;99.95
71145;BME280;58812;47.698;17.726;2023-02-07T06:15:39;102604.56;;;-9.09;100.00
71145;BME280;58812;47.698;17.726;2023-02-07T06:18:04;102599.53;;;-9.02;100.00
71145;BME280;58812;47.698;17.726;2023-02-07T06:20:30;102597.81;;;-9.01;99.81
71145;BME280;58812;47.698;17.726;2023-02-07T06:22:55;102601.34;;;-8.98;99.54
71145;BME280;58812;47.698;17.726;2023-02-07T06:25:20;102602.34;;;-8.93;99.32
71145;BME280;58812;47.698;17.726;2023-02-07T06:27:46;102607.56;;;-8.91;99.36
71145;BME280;58812;47.698;17.726;2023-02-07T06:30:11;102607.56;;;-8.91;99.95
71145;BME280;58812;47.698;17.726;2023-02-07T06:32:37;102597.19;;;-8.90;99.71
71145;BME280;58812;47.698;17.726;2023-02-07T06:35:04;102592.13;;;-8.85;99.42
71145;BME280;58812;47.698;17.726;2023-02-07T06:37:30;102599.03;;;-8.85;99.46
71145;BME280;58812;47.698;17.726;2023-02-07T06:39:55;102601.97;;;-8.69;99.39
71145;BME280;58812;47.698;17.726;2023-02-07T06:42:21;102603.63;;;-8.72;99.51
71145;BME280;58812;47.698;17.726;2023-02-07T06:44:46;102603.84;;;-8.62;99.66
71145;BME280;58812;47.698;17.726;2023-02-07T06:47:12;102605.59;;;-8.61;99.79
71145;BME280;58812;47.698;17.726;2023-02-07T06:49:37;102595.28;;;-8.59;100.00
71145;BME280;58812;47.698;17.726;2023-02-07T06:52:03;102598.03;;;-8.50;100.00
71145;BME280;58812;47.698;17.726;2023-02-07T06:54:29;102589.59;;;-8.40;100.00
71145;BME280;58812;47.698;17.726;2023-02-07T06:56:54;102594.75;;;-8.41;100.00
71145;BME280;58812;47.698;17.726;2023-02-07T06:59:20;102594.91;;;-8.30;100.00
71145;BME280;58812;47.698;17.726;2023-02-07T07:01:45;102609.00;;;-8.19;100.00
71145;BME280;58812;47.698;17.726;2023-02-07T07:04:11;102608.94;;;-8.24;100.00
71145;BME280;58812;47.698;17.726;2023-02-07T07:06:36;102608.94;;;-8.22;100.00
71145;BME280;58812;47.698;17.726;2023-02-07T07:09:03;102611.66;;;-8.18;100.00
71145;BME280;58812;47.698;17.726;2023-02-07T07:11:29;102605.53;;;-8.18;100.00
71145;BME280;58812;47.698;17.726;2023-02-07T07:13:54;102611.66;;;-8.16;100.00
71145;BME280;58812;47.698;17.726;2023-02-07T07:16:19;102610.94;;;-8.09;100.00
71145;BME280;58812;47.698;17.726;2023-02-07T07:18:45;102611.09;;;-8.00;100.00
71145;BME280;58812;47.698;17.726;2023-02-07T07:21:11;102618.31;;;-7.84;100.00
71145;BME280;58812;47.698;17.726;2023-02-07T07:23:37;102627.16;;;-7.75;100.00
71145;BME280;58812;47.698;17.726;2023-02-07T07:26:02;102623.78;;;-7.68;100.00
71145;BME280;58812;47.698;17.726;2023-02-07T07:28:28;102620.50;;;-7.58;100.00
71145;BME280;58812;47.698;17.726;2023-02-07T07:30:54;102614.62;;;-7.46;100.00
71145;BME280;58812;47.698;17.726;2023-02-07T07:33:19;102610.31;;;-7.46;100.00
71145;BME280;58812;47.698;17.726;2023-02-07T07:35:45;102606.19;;;-7.32;100.00
71145;BME280;58812;47.698;17.726;2023-02-07T07:38:10;102614.06;;;-7.27;100.00
71145;BME280;58812;47.698;17.726;2023-02-07T07:40:36;102614.25;;;-7.16;100.00
71145;BME280;58812;47.698;17.726;2023-02-07T07:43:01;102610.03;;;-7.07;100.00
71145;BME280;58812;47.698;17.726;2023-02-07T07:45:27;102607.50;;;-7.01;100.00
71145;BME280;58812;47.698;17.726;2023-02-07T07:47:52;102608.44;;;-6.95;100.00
71145;BME280;58812;47.698;17.726;2023-02-07T07:50:17;102609.37;;;-6.92;100.00
71145;BME280;58812;47.698;17.726;2023-02-07T07:52:43;102605.91;;;-6.91;100.00
71145;BME280;58812;47.698;17.726;2023-02-07T07:55:08;102597.38;;;-6.81;100.00
71145;BME280;58812;47.698;17.726;2023-02-07T07:57:34;102606.25;;;-6.66;100.00
71145;BME280;58812;47.698;17.726;2023-02-07T08:00:00;102606.31;;;-6.60;100.00
71145;BME280;58812;47.698;17.726;2023-02-07T08:02:26;102602.91;;;-6.56;100.00
71145;BME280;58812;47.698;17.726;2023-02-07T08:04:52;102592.56;;;-6.47;100.00
71145;BME280;58812;47.698;17.726;2023-02-07T08:07:17;102593.66;;;-6.30;100.00
71145;BME280;58812;47.698;17.726;2023-02-07T08:09:43;102601.47;;;-6.31;99.95
71145;BME280;58812;47.698;17.726;2023-02-07T08:12:09;102604.06;;;-6.31;99.52
71145;BME280;58812;47.698;17.726;2023-02-07T08:14:34;102615.44;;;-6.25;99.38
71145;BME280;58812;47.698;17.726;2023-02-07T08:17:00;102606.00;;;-6.16;99.47
71145;BME280;58812;47.698;17.726;2023-02-07T08:19:25;102607.00;;;-6.02;99.65
71145;BME280;58812;47.698;17.726;2023-02-07T08:21:51;102605.31;;;-5.97;98.99
71145;BME280;58812;47.698;17.726;2023-02-07T08:24:16;102603.66;;;-5.86;98.92
71145;BME280;58812;47.698;17.726;2023-02-07T08:26:42;102602.00;;;-5.76;98.60
71145;BME280;58812;47.698;17.726;2023-02-07T08:29:07;102595.13;;;-5.68;98.44
71145;BME280;58812;47.698;17.726;2023-02-07T08:31:33;102588.22;;;-5.61;98.00
71145;BME280;58812;47.698;17.726;2023-02-07T08:33:58;102596.94;;;-5.59;97.13
71145;BME280;58812;47.698;17.726;2023-02-07T08:36:24;102601.38;;;-5.49;96.72
71145;BME280;58812;47.698;17.726;2023-02-07T08:38:50;102595.31;;;-5.45;96.43
71145;BME280;58812;47.698;17.726;2023-02-07T08:41:15;102592.81;;;-5.31;96.17
71145;BME280;58812;47.698;17.726;2023-02-07T08:43:41;102597.25;;;-5.20;95.87
71145;BME280;58812;47.698;17.726;2023-02-07T08:46:06;102603.37;;;-5.13;95.03
71145;BME280;58812;47.698;17.726;2023-02-07T08:48:32;102602.63;;;-4.95;95.34
71145;BME280;58812;47.698;17.726;2023-02-07T08:51:06;102613.91;;;-5.01;93.58
71145;BME280;58812;47.698;17.726;2023-02-07T08:53:31;102608.66;;;-5.04;93.17
71145;BME280;58812;47.698;17.726;2023-02-07T08:55:57;102613.13;;;-4.83;93.69
71145;BME280;58812;47.698;17.726;2023-02-07T08:58:22;102603.63;;;-4.69;93.84
71145;BME280;58812;47.698;17.726;2023-02-07T09:00:48;102606.31;;;-4.53;92.17
71145;BME280;58812;47.698;17.726;2023-02-07T09:03:13;102607.25;;;-4.33;90.73
71145;BME280;58812;47.698;17.726;2023-02-07T09:05:39;102600.34;;;-4.19;89.99
71145;BME280;58812;47.698;17.726;2023-02-07T09:08:05;102601.25;;;-4.01;87.52
71145;BME280;58812;47.698;17.726;2023-02-07T09:10:33;102604.78;;;-3.77;87.20
71145;BME280;58812;47.698;17.726;2023-02-07T09:12:58;102594.31;;;-3.41;86.11
71145;BME280;58812;47.698;17.726;2023-02-07T09:15:24;102602.16;;;-3.15;83.20
71145;BME280;58812;47.698;17.726;2023-02-07T09:17:50;102592.50;;;-2.97;81.37
71145;BME280;58812;47.698;17.726;2023-02-07T09:20:15;102597.62;;;-2.57;78.97
71145;BME280;58812;47.698;17.726;2023-02-07T09:22:41;102586.13;;;-2.22;78.15
71145;BME280;58812;47.698;17.726;2023-02-07T09:25:25;102583.50;;;-2.22;77.56
71145;BME280;58812;47.698;17.726;2023-02-07T09:27:50;102592.87;;;-1.81;76.08
71145;BME280;58812;47.698;17.726;2023-02-07T09:30:16;102598.94;;;-1.73;73.95
71145;BME280;58812;47.698;17.726;2023-02-07T09:32:41;102588.63;;;-0.95;73.47
71145;BME280;58812;47.698;17.726;2023-02-07T09:35:07;102590.16;;;-0.75;72.45
71145;BME280;58812;47.698;17.726;2023-02-07T09:37:33;102597.03;;;-0.64;71.18
71145;BME280;58812;47.698;17.726;2023-02-07T09:39:59;102585.50;;;-0.52;67.63
71145;BME280;58812;47.698;17.726;2023-02-07T09:42:35;102580.44;;;-0.69;67.81
71145;BME280;58812;47.698;17.726;2023-02-07T09:47:33;102577.84;;;-0.07;65.22
71145;BME280;58812;47.698;17.726;2023-02-07T09:53:02;102577.12;;;0.42;64.52
71145;BME280;58812;47.698;17.726;2023-02-07T09:55:43;102586.59;;;0.52;62.68
71145;BME280;58812;47.698;17.726;2023-02-07T09:58:29;102574.31;;;1.02;61.46
71145;BME280;58812;47.698;17.726;2023-02-07T10:01:02;102576.84;;;1.08;59.45
71145;BME280;58812;47.698;17.726;2023-02-07T10:03:30;102574.12;;;1.11;59.98
71145;BME280;58812;47.698;17.726;2023-02-07T10:06:03;102573.50;;;0.98;60.16
71145;BME280;58812;47.698;17.726;2023-02-07T10:08:29;102576.44;;;1.28;59.90
71145;BME280;58812;47.698;17.726;2023-02-07T10:11:18;102575.41;;;1.37;57.39
71145;BME280;58812;47.698;17.726;2023-02-07T10:16:35;102570.00;;;1.43;57.19
71145;BME280;58812;47.698;17.726;2023-02-07T10:19:37;102577.78;;;0.55;59.44
71145;BME280;58812;47.698;17.726;2023-02-07T10:22:22;102569.84;;;0.02;59.61
71145;BME280;58812;47.698;17.726;2023-02-07T10:27:35;102565.97;;;1.67;56.76
71145;BME280;58812;47.698;17.726;2023-02-07T10:32:37;102566.38;;;1.87;55.02
71145;BME280;58812;47.698;17.726;2023-02-07T10:35:21;102570.16;;;1.33;55.88
71145;BME280;58812;47.698;17.726;2023-02-07T10:37:51;102566.59;;;2.17;53.64
71145;BME280;58812;47.698;17.726;2023-02-07T10:40:32;102562.63;;;1.57;55.52
71145;BME280;58812;47.698;17.726;2023-02-07T10:43:07;102565.78;;;2.83;53.64
71145;BME280;58812;47.698;17.726;2023-02-07T10:45:37;102561.13;;;2.92;52.43
71145;BME280;58812;47.698;17.726;2023-02-07T10:48:14;102556.13;;;2.12;53.25
71145;BME280;58812;47.698;17.726;2023-02-07T10:50:39;102546.72;;;1.60;55.86
71145;BME280;58812;47.698;17.726;2023-02-07T10:53:05;102552.16;;;1.11;58.36
71145;BME280;58812;47.698;17.726;2023-02-07T11:00:49;102527.63;;;1.87;56.30
71145;BME280;58812;47.698;17.726;2023-02-07T11:03:25;102534.38;;;1.20;57.74
71145;BME280;58812;47.698;17.726;2023-02-07T11:08:34;102535.59;;;1.86;57.68
71145;BME280;58812;47.698;17.726;2023-02-07T11:13:51;102529.56;;;0.97;57.44
71145;BME280;58812;47.698;17.726;2023-02-07T11:16:19;102522.81;;;0.33;60.00
71145;BME280;58812;47.698;17.726;2023-02-07T11:18:54;102515.25;;;1.51;57.78
71145;BME280;58812;47.698;17.726;2023-02-07T11:26:32;102508.19;;;2.27;54.18
71145;BME280;58812;47.698;17.726;2023-02-07T11:29:14;102507.59;;;2.83;53.34
71145;BME280;58812;47.698;17.726;2023-02-07T11:31:41;102509.16;;;3.80;51.66
71145;BME280;58812;47.698;17.726;2023-02-07T11:36:50;102499.88;;;2.75;50.74
71145;BME280;58812;47.698;17.726;2023-02-07T11:39:18;102495.28;;;3.13;50.68
71145;BME280;58812;47.698;17.726;2023-02-07T11:41:53;102501.97;;;2.95;52.11
71145;BME280;58812;47.698;17.726;2023-02-07T11:44:23;102502.88;;;2.94;50.84
71145;BME280;58812;47.698;17.726;2023-02-07T11:46:49;102499.97;;;2.04;51.80
71145;BME280;58812;47.698;17.726;2023-02-07T11:49:40;102502.81;;;2.64;50.75
71145;BME280;58812;47.698;17.726;2023-02-07T11:52:07;102508.31;;;2.57;48.93
71145;BME280;58812;47.698;17.726;2023-02-07T11:54:33;102505.81;;;2.85;50.31
71145;BME280;58812;47.698;17.726;2023-02-07T11:57:05;102501.06;;;3.57;49.47
71145;BME280;58812;47.698;17.726;2023-02-07T11:59:32;102496.59;;;3.29;49.40
71145;BME280;58812;47.698;17.726;2023-02-07T12:02:05;102493.75;;;3.35;48.88
71145;BME280;58812;47.698;17.726;2023-02-07T12:04:33;102503.91;;;2.88;50.72
71145;BME280;58812;47.698;17.726;2023-02-07T12:07:09;102493.66;;;3.09;50.91
71145;BME280;58812;47.698;17.726;2023-02-07T12:09:48;102490.97;;;3.10;50.81
71145;BME280;58812;47.698;17.726;2023-02-07T12:14:59;102489.75;;;1.88;54.63
71145;BME280;58812;47.698;17.726;2023-02-07T12:20:23;102487.09;;;1.90;54.02
71145;BME280;58812;47.698;17.726;2023-02-07T12:25:57;102474.75;;;2.59;52.94
71145;BME280;58812;47.698;17.726;2023-02-07T12:28:39;102472.84;;;2.31;53.28
71145;BME280;58812;47.698;17.726;2023-02-07T12:31:22;102466.53;;;3.01;51.67
71145;BME280;58812;47.698;17.726;2023-02-07T12:33:56;102474.28;;;3.07;50.03
71145;BME280;58812;47.698;17.726;2023-02-07T12:36:32;102469.56;;;2.56;51.73
71145;BME280;58812;47.698;17.726;2023-02-07T12:39:09;102457.22;;;2.22;52.73
71145;BME280;58812;47.698;17.726;2023-02-07T12:42:03;102460.37;;;2.69;52.49
71145;BME280;58812;47.698;17.726;2023-02-07T12:44:34;102461.16;;;3.63;49.48
71145;BME280;58812;47.698;17.726;2023-02-07T12:55:34;102460.25;;;3.05;52.06
71145;BME280;58812;47.698;17.726;2023-02-07T12:58:17;102467.97;;;3.12;50.18
71145;BME280;58812;47.698;17.726;2023-02-07T13:12:17;102450.44;;;2.77;47.87
71145;BME280;58812;47.698;17.726;2023-02-07T13:22:56;102445.34;;;1.69;49.06
71145;BME280;58812;47.698;17.726;2023-02-07T13:25:29;102451.06;;;2.22;48.12
71145;BME280;58812;47.698;17.726;2023-02-07T13:27:58;102452.09;;;1.80;49.16
71145;BME280;58812;47.698;17.726;2023-02-07T13:30:26;102458.06;;;1.88;48.55
71145;BME280;58812;47.698;17.726;2023-02-07T13:32:54;102460.47;;;1.62;48.44
71145;BME280;58812;47.698;17.726;2023-02-07T13:35:27;102457.59;;;1.71;48.63
71145;BME280;58812;47.698;17.726;2023-02-07T13:38:17;102458.19;;;1.82;48.24
71145;BME280;58812;47.698;17.726;2023-02-07T13:41:02;102457.88;;;2.30;47.19
71145;BME280;58812;47.698;17.726;2023-02-07T13:43:37;102457.94;;;2.29;48.22
71145;BME280;58812;47.698;17.726;2023-02-07T13:48:58;102451.84;;;2.25;48.42
71145;BME280;58812;47.698;17.726;2023-02-07T13:51:50;102448.88;;;1.68;48.92
71145;BME280;58812;47.698;17.726;2023-02-07T13:56:59;102448.31;;;1.55;49.63
71145;BME280;58812;47.698;17.726;2023-02-07T13:59:44;102452.78;;;1.88;48.90
71145;BME280;58812;47.698;17.726;2023-02-07T14:02:28;102439.00;;;1.39;50.66
71145;BME280;58812;47.698;17.726;2023-02-07T14:04:56;102443.41;;;1.75;49.68
71145;BME280;58812;47.698;17.726;2023-02-07T14:07:25;102443.06;;;1.91;49.77
71145;BME280;58812;47.698;17.726;2023-02-07T14:09:54;102445.34;;;2.04;49.49
71145;BME280;58812;47.698;17.726;2023-02-07T14:12:25;102439.25;;;1.65;49.72
71145;BME280;58812;47.698;17.726;2023-02-07T14:14:52;102446.28;;;1.66;50.36
71145;BME280;58812;47.698;17.726;2023-02-07T14:19:56;102441.00;;;1.66;51.08
71145;BME280;58812;47.698;17.726;2023-02-07T14:32:27;102424.34;;;1.25;52.64
71145;BME280;58812;47.698;17.726;2023-02-07T14:37:43;102428.00;;;0.78;52.88
71145;BME280;58812;47.698;17.726;2023-02-07T14:40:24;102431.50;;;0.78;53.31
71145;BME280;58812;47.698;17.726;2023-02-07T14:45:21;102422.09;;;0.65;53.74
71145;BME280;58812;47.698;17.726;2023-02-07T14:47:48;102420.41;;;0.61;53.77
71145;BME280;58812;47.698;17.726;2023-02-07T14:50:21;102425.06;;;0.47;54.46
71145;BME280;58812;47.698;17.726;2023-02-07T14:52:50;102425.19;;;0.42;54.22
71145;BME280;58812;47.698;17.726;2023-02-07T14:55:19;102421.06;;;0.26;54.45
71145;BME280;58812;47.698;17.726;2023-02-07T14:58:19;102424.69;;;0.20;55.13